Norse Mersey — IBEN — position and weather

sailwx.info

Track history (hours):
 
Tides and Currents Weather Stations Pressure Air Temp Water Temp Dewpoint Dewpoint Depression Visibility Wind Speed Wind Dir Waves Ship Positions

Norse Mersey

Operator: Norse Merchant Ferries

Last reported at 2020-Sep-17 03:30 UTC. Time now 2020-Sep-18 07:33 UTC.
Position N 40°06' E 014°26'.

Length 175 m; draft 5.1 m.

Type: Passenger vessel. MMSI: 247026000.

Date/timePositionNaut miles runAvg speedWind from/ knotsBaromVisibWave heightAir tempDewpointWater temp
2020-Sep-17 03:30N 40°06' E 014°26'10915.5
2020-Sep-16 20:30N 38°25' E 013°35'20 9.9
2020-Sep-16 18:30N 38°08' E 013°22'0 0.0
2020-Sep-16 18:00N 38°08' E 013°22'0 0.0
2020-Sep-16 17:00N 38°08' E 013°22'0 0.0
2020-Sep-16 16:30N 38°08' E 013°22'0 0.0
2020-Sep-16 12:00N 38°08' E 013°22'2 0.3
2020-Sep-16 07:00N 38°08' E 013°24'12915.1
2020-Sep-15 22:29N 40°07' E 014°26'3115.8
2020-Sep-15 20:29N 40°36' E 014°42'7 0.5
2020-Sep-15 05:27N 40°29' E 014°39'3715.1
2020-Sep-15 02:58N 39°54' E 014°21'815.2
2020-Sep-15 02:28N 39°47' E 014°17'8715.9
2020-Sep-14 21:00N 38°27' E 013°36'1616.2
2020-Sep-14 20:00N 38°12' E 013°28'6 1.1
2020-Sep-14 14:28N 38°08' E 013°22'0 0.0
2020-Sep-14 12:28N 38°08' E 013°22'0 0.0
2020-Sep-14 09:58N 38°08' E 013°22'0 0.0
2020-Sep-14 06:28N 38°08' E 013°22'0 0.0
2020-Sep-14 05:28N 38°08' E 013°22'0 0.0
2020-Sep-14 04:58N 38°08' E 013°22'0 0.0
2020-Sep-14 03:58N 38°08' E 013°22'0 0.0
2020-Sep-14 03:28N 38°08' E 013°22'0 0.0
2020-Sep-14 02:58N 38°08' E 013°22'0 0.0
2020-Sep-14 02:28N 38°08' E 013°22'0 0.0
2020-Sep-14 00:58N 38°08' E 013°22'0 0.0
2020-Sep-13 22:28N 38°08' E 013°22'0 0.0
2020-Sep-13 21:58N 38°08' E 013°22'0 0.0
2020-Sep-13 21:28N 38°08' E 013°22'0 0.0
2020-Sep-13 15:58N 38°08' E 013°22'0 0.0
2020-Sep-13 15:28N 38°08' E 013°22'0 0.0
2020-Sep-13 14:30N 38°08' E 013°22'3 2.8
2020-Sep-13 13:30N 38°09' E 013°25'12610.9
2020-Sep-13 01:55N 40°06' E 014°26'3213.3
2020-Sep-12 23:30N 40°36' E 014°42'11 0.6
2020-Sep-12 04:50N 40°26' E 014°37'515.6
2020-Sep-12 04:30N 40°21' E 014°35'14415.2
2020-Sep-11 19:00N 38°08' E 013°22'0 0.0
2020-Sep-11 11:00N 38°08' E 013°22'0 0.0
2020-Sep-11 09:00N 38°08' E 013°22'0 0.0
2020-Sep-11 08:30N 38°08' E 013°22'0 0.0
2020-Sep-11 08:00N 38°08' E 013°22'0 0.0
2020-Sep-11 06:30N 38°08' E 013°22'1 1.6
2020-Sep-11 06:00N 38°07' E 013°23'13215.2
2020-Sep-10 21:21N 40°09' E 014°28'616.2
2020-Sep-10 20:59N 40°15' E 014°30'15 0.9
2020-Sep-10 04:59N 40°28' E 014°39'2315.4
2020-Sep-10 03:30N 40°07' E 014°28'12715.9
2020-Sep-09 19:30N 38°10' E 013°26'4 2.5
2020-Sep-09 17:59N 38°08' E 013°22'0 0.0
2020-Sep-09 17:29N 38°08' E 013°22'0 0.0
2020-Sep-09 15:59N 38°08' E 013°22'0 0.0
2020-Sep-09 12:59N 38°08' E 013°22'0 0.0
2020-Sep-09 10:59N 38°08' E 013°22'0 0.0
2020-Sep-09 09:29N 38°08' E 013°22'0 0.0
2020-Sep-09 08:59N 38°08' E 013°22'0 0.0
2020-Sep-09 07:59N 38°08' E 013°22'0 0.0
2020-Sep-09 06:59N 38°08' E 013°22'1 1.3
2020-Sep-09 06:01N 38°07' E 013°23'159 6.5
2020-Sep-08 05:28N 40°34' E 014°41'3115.6
2020-Sep-08 03:29N 40°05' E 014°26'10315.9
2020-Sep-07 21:00N 38°30' E 013°37'1615.7
2020-Sep-07 20:00N 38°15' E 013°30'10 2.8
2020-Sep-07 16:29N 38°08' E 013°22'0 0.0
2020-Sep-07 12:58N 38°08' E 013°22'0 0.0
2020-Sep-07 11:28N 38°08' E 013°22'0 0.0
2020-Sep-07 08:29N 38°08' E 013°22'0 0.0
2020-Sep-07 07:59N 38°08' E 013°22'0 0.0
2020-Sep-07 05:28N 38°08' E 013°22'0 0.0
2020-Sep-07 04:59N 38°08' E 013°22'0 0.0
2020-Sep-07 03:58N 38°08' E 013°22'  
Track history (hours):
 
Tides and Currents Weather Stations Pressure Air Temp Water Temp Dewpoint Dewpoint Depression Visibility Wind Speed Wind Dir Waves Ship Positions

Norse Mersey

Operator: Norse Merchant Ferries

Last reported at 2020-Sep-17 03:30 UTC. Time now 2020-Sep-18 07:33 UTC.
Position N 40°06' E 014°26'.

Length 175 m; draft 5.1 m.

Type: Passenger vessel. MMSI: 247026000.

Date/timePositionNaut miles runAvg speedWind from/ knotsBaromVisibWave heightAir tempDewpointWater temp
2020-Sep-17 03:30N 40°06' E 014°26'10915.5
2020-Sep-16 20:30N 38°25' E 013°35'20 9.9
2020-Sep-16 18:30N 38°08' E 013°22'0 0.0
2020-Sep-16 18:00N 38°08' E 013°22'0 0.0
2020-Sep-16 17:00N 38°08' E 013°22'0 0.0
2020-Sep-16 16:30N 38°08' E 013°22'0 0.0
2020-Sep-16 12:00N 38°08' E 013°22'2 0.3
2020-Sep-16 07:00N 38°08' E 013°24'12915.1
2020-Sep-15 22:29N 40°07' E 014°26'3115.8
2020-Sep-15 20:29N 40°36' E 014°42'7 0.5
2020-Sep-15 05:27N 40°29' E 014°39'3715.1
2020-Sep-15 02:58N 39°54' E 014°21'815.2
2020-Sep-15 02:28N 39°47' E 014°17'8715.9
2020-Sep-14 21:00N 38°27' E 013°36'1616.2
2020-Sep-14 20:00N 38°12' E 013°28'6 1.1
2020-Sep-14 14:28N 38°08' E 013°22'0 0.0
2020-Sep-14 12:28N 38°08' E 013°22'0 0.0
2020-Sep-14 09:58N 38°08' E 013°22'0 0.0
2020-Sep-14 06:28N 38°08' E 013°22'0 0.0
2020-Sep-14 05:28N 38°08' E 013°22'0 0.0
2020-Sep-14 04:58N 38°08' E 013°22'0 0.0
2020-Sep-14 03:58N 38°08' E 013°22'0 0.0
2020-Sep-14 03:28N 38°08' E 013°22'0 0.0
2020-Sep-14 02:58N 38°08' E 013°22'0 0.0
2020-Sep-14 02:28N 38°08' E 013°22'0 0.0
2020-Sep-14 00:58N 38°08' E 013°22'0 0.0
2020-Sep-13 22:28N 38°08' E 013°22'0 0.0
2020-Sep-13 21:58N 38°08' E 013°22'0 0.0
2020-Sep-13 21:28N 38°08' E 013°22'0 0.0
2020-Sep-13 15:58N 38°08' E 013°22'0 0.0
2020-Sep-13 15:28N 38°08' E 013°22'0 0.0
2020-Sep-13 14:30N 38°08' E 013°22'3 2.8
2020-Sep-13 13:30N 38°09' E 013°25'12610.9
2020-Sep-13 01:55N 40°06' E 014°26'3213.3
2020-Sep-12 23:30N 40°36' E 014°42'11 0.6
2020-Sep-12 04:50N 40°26' E 014°37'515.6
2020-Sep-12 04:30N 40°21' E 014°35'14415.2
2020-Sep-11 19:00N 38°08' E 013°22'0 0.0
2020-Sep-11 11:00N 38°08' E 013°22'0 0.0
2020-Sep-11 09:00N 38°08' E 013°22'0 0.0
2020-Sep-11 08:30N 38°08' E 013°22'0 0.0
2020-Sep-11 08:00N 38°08' E 013°22'0 0.0
2020-Sep-11 06:30N 38°08' E 013°22'1 1.6
2020-Sep-11 06:00N 38°07' E 013°23'13215.2
2020-Sep-10 21:21N 40°09' E 014°28'616.2
2020-Sep-10 20:59N 40°15' E 014°30'15 0.9
2020-Sep-10 04:59N 40°28' E 014°39'2315.4
2020-Sep-10 03:30N 40°07' E 014°28'12715.9
2020-Sep-09 19:30N 38°10' E 013°26'4 2.5
2020-Sep-09 17:59N 38°08' E 013°22'0 0.0
2020-Sep-09 17:29N 38°08' E 013°22'0 0.0
2020-Sep-09 15:59N 38°08' E 013°22'0 0.0
2020-Sep-09 12:59N 38°08' E 013°22'0 0.0
2020-Sep-09 10:59N 38°08' E 013°22'0 0.0
2020-Sep-09 09:29N 38°08' E 013°22'0 0.0
2020-Sep-09 08:59N 38°08' E 013°22'0 0.0
2020-Sep-09 07:59N 38°08' E 013°22'0 0.0
2020-Sep-09 06:59N 38°08' E 013°22'1 1.3
2020-Sep-09 06:01N 38°07' E 013°23'159 6.5
2020-Sep-08 05:28N 40°34' E 014°41'3115.6
2020-Sep-08 03:29N 40°05' E 014°26'10315.9
2020-Sep-07 21:00N 38°30' E 013°37'1615.7
2020-Sep-07 20:00N 38°15' E 013°30'10 2.8
2020-Sep-07 16:29N 38°08' E 013°22'0 0.0
2020-Sep-07 12:58N 38°08' E 013°22'0 0.0
2020-Sep-07 11:28N 38°08' E 013°22'0 0.0
2020-Sep-07 08:29N 38°08' E 013°22'0 0.0
2020-Sep-07 07:59N 38°08' E 013°22'0 0.0
2020-Sep-07 05:28N 38°08' E 013°22'0 0.0
2020-Sep-07 04:59N 38°08' E 013°22'0 0.0
2020-Sep-07 03:58N 38°08' E 013°22'  

Dump ship's entire track history